sensor_id;sensor_type;location;lat;lon;timestamp;P1;durP1;ratioP1;P2;durP2;ratioP2
54388;SDS011;40975;50.390;8.640;2022-11-20T00:02:08;13.15;;;6.55;;
54388;SDS011;40975;50.390;8.640;2022-11-20T00:04:33;11.70;;;6.35;;
54388;SDS011;40975;50.390;8.640;2022-11-20T00:06:58;9.68;;;6.03;;
54388;SDS011;40975;50.390;8.640;2022-11-20T00:09:24;14.82;;;7.57;;
54388;SDS011;40975;50.390;8.640;2022-11-20T00:11:49;13.20;;;6.82;;
54388;SDS011;40975;50.390;8.640;2022-11-20T00:14:14;13.95;;;6.45;;
54388;SDS011;40975;50.390;8.640;2022-11-20T00:16:39;13.18;;;6.32;;
54388;SDS011;40975;50.390;8.640;2022-11-20T00:19:05;13.45;;;6.22;;
54388;SDS011;40975;50.390;8.640;2022-11-20T00:21:31;12.15;;;6.47;;
54388;SDS011;40975;50.390;8.640;2022-11-20T00:23:56;16.08;;;6.93;;
54388;SDS011;40975;50.390;8.640;2022-11-20T00:26:22;14.90;;;6.82;;
54388;SDS011;40975;50.390;8.640;2022-11-20T00:28:51;15.70;;;7.00;;
54388;SDS011;40975;50.390;8.640;2022-11-20T00:31:18;12.65;;;6.63;;
54388;SDS011;40975;50.390;8.640;2022-11-20T00:33:44;17.55;;;8.02;;
54388;SDS011;40975;50.390;8.640;2022-11-20T00:36:10;13.13;;;6.68;;
54388;SDS011;40975;50.390;8.640;2022-11-20T00:38:37;14.35;;;6.75;;
54388;SDS011;40975;50.390;8.640;2022-11-20T00:41:04;12.55;;;6.43;;
54388;SDS011;40975;50.390;8.640;2022-11-20T00:43:31;12.27;;;6.43;;
54388;SDS011;40975;50.390;8.640;2022-11-20T00:46:00;14.82;;;6.38;;
54388;SDS011;40975;50.390;8.640;2022-11-20T00:48:30;11.77;;;6.45;;
54388;SDS011;40975;50.390;8.640;2022-11-20T00:50:56;11.23;;;5.63;;
54388;SDS011;40975;50.390;8.640;2022-11-20T00:53:22;10.40;;;5.60;;
54388;SDS011;40975;50.390;8.640;2022-11-20T01:00:45;12.15;;;5.88;;
54388;SDS011;40975;50.390;8.640;2022-11-20T01:03:10;14.25;;;6.47;;
54388;SDS011;40975;50.390;8.640;2022-11-20T01:05:36;15.95;;;7.22;;
54388;SDS011;40975;50.390;8.640;2022-11-20T01:08:01;14.00;;;7.35;;
54388;SDS011;40975;50.390;8.640;2022-11-20T01:10:26;12.85;;;6.07;;
54388;SDS011;40975;50.390;8.640;2022-11-20T01:12:52;14.60;;;7.10;;
54388;SDS011;40975;50.390;8.640;2022-11-20T01:15:37;11.95;;;6.25;;
54388;SDS011;40975;50.390;8.640;2022-11-20T01:18:02;12.30;;;6.30;;
54388;SDS011;40975;50.390;8.640;2022-11-20T01:20:28;14.45;;;6.95;;
54388;SDS011;40975;50.390;8.640;2022-11-20T01:22:53;15.02;;;6.32;;
54388;SDS011;40975;50.390;8.640;2022-11-20T01:25:18;14.13;;;7.40;;
54388;SDS011;40975;50.390;8.640;2022-11-20T01:27:44;13.88;;;6.72;;
54388;SDS011;40975;50.390;8.640;2022-11-20T01:30:09;15.77;;;7.07;;
54388;SDS011;40975;50.390;8.640;2022-11-20T01:32:35;11.48;;;6.57;;
54388;SDS011;40975;50.390;8.640;2022-11-20T01:35:00;16.42;;;8.02;;
54388;SDS011;40975;50.390;8.640;2022-11-20T01:37:25;15.75;;;6.72;;
54388;SDS011;40975;50.390;8.640;2022-11-20T01:39:51;11.15;;;5.88;;
54388;SDS011;40975;50.390;8.640;2022-11-20T01:42:16;11.07;;;6.28;;
54388;SDS011;40975;50.390;8.640;2022-11-20T01:48:07;11.82;;;6.32;;
54388;SDS011;40975;50.390;8.640;2022-11-20T01:50:32;12.48;;;6.20;;
54388;SDS011;40975;50.390;8.640;2022-11-20T01:53:02;12.05;;;6.50;;
54388;SDS011;40975;50.390;8.640;2022-11-20T01:55:36;12.65;;;6.30;;
54388;SDS011;40975;50.390;8.640;2022-11-20T01:58:06;12.77;;;7.13;;
54388;SDS011;40975;50.390;8.640;2022-11-20T02:00:32;16.63;;;6.57;;
54388;SDS011;40975;50.390;8.640;2022-11-20T02:02:58;14.82;;;7.22;;
54388;SDS011;40975;50.390;8.640;2022-11-20T02:05:39;14.88;;;6.47;;
54388;SDS011;40975;50.390;8.640;2022-11-20T02:08:21;12.20;;;6.82;;
54388;SDS011;40975;50.390;8.640;2022-11-20T02:10:48;14.52;;;7.63;;
54388;SDS011;40975;50.390;8.640;2022-11-20T02:13:13;13.88;;;7.35;;
54388;SDS011;40975;50.390;8.640;2022-11-20T02:15:57;14.50;;;7.53;;
54388;SDS011;40975;50.390;8.640;2022-11-20T02:18:22;14.75;;;6.97;;
54388;SDS011;40975;50.390;8.640;2022-11-20T02:20:50;15.73;;;8.23;;
54388;SDS011;40975;50.390;8.640;2022-11-20T02:26:03;16.83;;;7.70;;
54388;SDS011;40975;50.390;8.640;2022-11-20T02:28:32;16.58;;;8.35;;
54388;SDS011;40975;50.390;8.640;2022-11-20T02:30:58;19.92;;;8.23;;
54388;SDS011;40975;50.390;8.640;2022-11-20T02:33:23;19.35;;;9.25;;
54388;SDS011;40975;50.390;8.640;2022-11-20T02:35:48;18.00;;;8.75;;
54388;SDS011;40975;50.390;8.640;2022-11-20T02:38:14;17.83;;;8.80;;
54388;SDS011;40975;50.390;8.640;2022-11-20T02:40:40;15.55;;;7.53;;
54388;SDS011;40975;50.390;8.640;2022-11-20T02:43:06;19.50;;;8.32;;
54388;SDS011;40975;50.390;8.640;2022-11-20T02:45:31;14.45;;;7.22;;
54388;SDS011;40975;50.390;8.640;2022-11-20T02:47:57;17.63;;;7.85;;
54388;SDS011;40975;50.390;8.640;2022-11-20T02:50:22;16.58;;;7.57;;
54388;SDS011;40975;50.390;8.640;2022-11-20T02:52:48;15.65;;;7.43;;
54388;SDS011;40975;50.390;8.640;2022-11-20T02:55:13;19.33;;;7.47;;
54388;SDS011;40975;50.390;8.640;2022-11-20T02:57:38;16.50;;;8.57;;
54388;SDS011;40975;50.390;8.640;2022-11-20T03:00:04;18.00;;;7.78;;
54388;SDS011;40975;50.390;8.640;2022-11-20T03:02:31;18.52;;;8.18;;
54388;SDS011;40975;50.390;8.640;2022-11-20T03:04:57;18.80;;;8.38;;
54388;SDS011;40975;50.390;8.640;2022-11-20T03:07:22;16.92;;;8.02;;
54388;SDS011;40975;50.390;8.640;2022-11-20T03:09:48;14.30;;;6.18;;
54388;SDS011;40975;50.390;8.640;2022-11-20T03:12:13;17.60;;;8.38;;
54388;SDS011;40975;50.390;8.640;2022-11-20T03:14:39;15.60;;;7.57;;
54388;SDS011;40975;50.390;8.640;2022-11-20T03:17:04;15.65;;;7.72;;
54388;SDS011;40975;50.390;8.640;2022-11-20T03:19:29;16.60;;;7.75;;
54388;SDS011;40975;50.390;8.640;2022-11-20T03:21:55;13.95;;;6.90;;
54388;SDS011;40975;50.390;8.640;2022-11-20T03:24:20;13.43;;;6.88;;
54388;SDS011;40975;50.390;8.640;2022-11-20T03:26:46;13.95;;;7.88;;
54388;SDS011;40975;50.390;8.640;2022-11-20T03:29:11;18.58;;;7.95;;
54388;SDS011;40975;50.390;8.640;2022-11-20T03:31:37;15.38;;;6.85;;
54388;SDS011;40975;50.390;8.640;2022-11-20T03:34:05;19.20;;;8.07;;
54388;SDS011;40975;50.390;8.640;2022-11-20T03:36:32;19.58;;;8.48;;
54388;SDS011;40975;50.390;8.640;2022-11-20T03:38:58;13.40;;;6.75;;
54388;SDS011;40975;50.390;8.640;2022-11-20T03:41:24;14.63;;;7.35;;
54388;SDS011;40975;50.390;8.640;2022-11-20T03:43:55;18.10;;;8.05;;
54388;SDS011;40975;50.390;8.640;2022-11-20T03:46:22;18.05;;;7.93;;
54388;SDS011;40975;50.390;8.640;2022-11-20T03:48:48;15.48;;;6.53;;
54388;SDS011;40975;50.390;8.640;2022-11-20T03:51:21;16.38;;;7.63;;
54388;SDS011;40975;50.390;8.640;2022-11-20T03:53:49;17.67;;;7.70;;
54388;SDS011;40975;50.390;8.640;2022-11-20T03:56:16;14.90;;;7.55;;
54388;SDS011;40975;50.390;8.640;2022-11-20T03:58:43;15.82;;;7.47;;
54388;SDS011;40975;50.390;8.640;2022-11-20T04:01:19;16.98;;;8.07;;
54388;SDS011;40975;50.390;8.640;2022-11-20T04:03:46;16.50;;;8.30;;
54388;SDS011;40975;50.390;8.640;2022-11-20T04:06:14;14.32;;;8.35;;
54388;SDS011;40975;50.390;8.640;2022-11-20T04:08:41;14.52;;;6.47;;
54388;SDS011;40975;50.390;8.640;2022-11-20T04:11:11;15.02;;;6.70;;
54388;SDS011;40975;50.390;8.640;2022-11-20T04:13:41;14.85;;;7.22;;
54388;SDS011;40975;50.390;8.640;2022-11-20T04:16:08;17.10;;;7.13;;
54388;SDS011;40975;50.390;8.640;2022-11-20T04:18:34;17.63;;;8.10;;
54388;SDS011;40975;50.390;8.640;2022-11-20T04:21:00;15.25;;;7.65;;
54388;SDS011;40975;50.390;8.640;2022-11-20T04:23:26;17.27;;;8.05;;
54388;SDS011;40975;50.390;8.640;2022-11-20T04:25:52;12.52;;;6.05;;
54388;SDS011;40975;50.390;8.640;2022-11-20T04:28:17;14.85;;;7.65;;
54388;SDS011;40975;50.390;8.640;2022-11-20T04:30:43;17.23;;;7.95;;
54388;SDS011;40975;50.390;8.640;2022-11-20T04:33:08;12.95;;;6.65;;
54388;SDS011;40975;50.390;8.640;2022-11-20T04:35:34;13.40;;;7.47;;
54388;SDS011;40975;50.390;8.640;2022-11-20T04:38:00;15.95;;;7.53;;
54388;SDS011;40975;50.390;8.640;2022-11-20T04:40:27;16.48;;;8.20;;
54388;SDS011;40975;50.390;8.640;2022-11-20T04:42:53;14.35;;;6.93;;
54388;SDS011;40975;50.390;8.640;2022-11-20T04:45:19;17.85;;;7.28;;
54388;SDS011;40975;50.390;8.640;2022-11-20T04:47:44;15.75;;;7.47;;
54388;SDS011;40975;50.390;8.640;2022-11-20T04:50:09;13.43;;;6.47;;
54388;SDS011;40975;50.390;8.640;2022-11-20T04:52:35;15.43;;;7.60;;
54388;SDS011;40975;50.390;8.640;2022-11-20T04:55:00;14.70;;;7.20;;
54388;SDS011;40975;50.390;8.640;2022-11-20T04:57:25;14.57;;;7.25;;
54388;SDS011;40975;50.390;8.640;2022-11-20T04:59:51;14.88;;;7.90;;
54388;SDS011;40975;50.390;8.640;2022-11-20T05:02:16;16.27;;;7.65;;
54388;SDS011;40975;50.390;8.640;2022-11-20T05:04:42;18.58;;;7.38;;
54388;SDS011;40975;50.390;8.640;2022-11-20T05:07:07;14.05;;;6.68;;
54388;SDS011;40975;50.390;8.640;2022-11-20T05:09:32;17.73;;;7.85;;
54388;SDS011;40975;50.390;8.640;2022-11-20T05:11:58;16.02;;;7.72;;
54388;SDS011;40975;50.390;8.640;2022-11-20T05:14:23;15.32;;;8.20;;
54388;SDS011;40975;50.390;8.640;2022-11-20T05:16:48;19.13;;;8.40;;
54388;SDS011;40975;50.390;8.640;2022-11-20T05:19:14;19.73;;;8.50;;
54388;SDS011;40975;50.390;8.640;2022-11-20T05:21:39;16.45;;;8.18;;
54388;SDS011;40975;50.390;8.640;2022-11-20T05:24:04;15.93;;;7.35;;
54388;SDS011;40975;50.390;8.640;2022-11-20T05:26:30;17.15;;;7.55;;
54388;SDS011;40975;50.390;8.640;2022-11-20T05:28:56;19.13;;;8.32;;
54388;SDS011;40975;50.390;8.640;2022-11-20T05:31:22;19.17;;;9.10;;
54388;SDS011;40975;50.390;8.640;2022-11-20T05:33:49;17.17;;;8.82;;
54388;SDS011;40975;50.390;8.640;2022-11-20T05:36:14;17.25;;;7.65;;
54388;SDS011;40975;50.390;8.640;2022-11-20T05:38:40;16.20;;;8.40;;
54388;SDS011;40975;50.390;8.640;2022-11-20T05:41:07;19.48;;;8.98;;
54388;SDS011;40975;50.390;8.640;2022-11-20T05:43:37;14.52;;;7.82;;
54388;SDS011;40975;50.390;8.640;2022-11-20T05:46:04;18.98;;;7.50;;
54388;SDS011;40975;50.390;8.640;2022-11-20T05:48:30;16.65;;;7.22;;
54388;SDS011;40975;50.390;8.640;2022-11-20T05:50:57;18.42;;;8.95;;
54388;SDS011;40975;50.390;8.640;2022-11-20T05:53:27;17.83;;;8.00;;
54388;SDS011;40975;50.390;8.640;2022-11-20T05:55:56;19.90;;;8.32;;
54388;SDS011;40975;50.390;8.640;2022-11-20T05:58:25;16.17;;;7.85;;
54388;SDS011;40975;50.390;8.640;2022-11-20T06:00:51;20.42;;;10.02;;
54388;SDS011;40975;50.390;8.640;2022-11-20T06:03:16;17.98;;;8.93;;
54388;SDS011;40975;50.390;8.640;2022-11-20T06:05:42;20.35;;;9.70;;
54388;SDS011;40975;50.390;8.640;2022-11-20T06:08:07;18.33;;;10.07;;
54388;SDS011;40975;50.390;8.640;2022-11-20T06:10:32;16.30;;;8.60;;
54388;SDS011;40975;50.390;8.640;2022-11-20T06:12:58;21.27;;;8.43;;
54388;SDS011;40975;50.390;8.640;2022-11-20T06:15:23;20.60;;;8.48;;
54388;SDS011;40975;50.390;8.640;2022-11-20T06:17:51;21.63;;;9.57;;
54388;SDS011;40975;50.390;8.640;2022-11-20T06:20:17;18.58;;;8.82;;
54388;SDS011;40975;50.390;8.640;2022-11-20T06:22:43;17.45;;;8.35;;
54388;SDS011;40975;50.390;8.640;2022-11-20T06:25:08;20.63;;;9.60;;
54388;SDS011;40975;50.390;8.640;2022-11-20T06:27:33;19.40;;;8.65;;
54388;SDS011;40975;50.390;8.640;2022-11-20T06:29:59;18.48;;;9.23;;
54388;SDS011;40975;50.390;8.640;2022-11-20T06:32:24;20.55;;;9.70;;
54388;SDS011;40975;50.390;8.640;2022-11-20T06:34:49;18.02;;;8.07;;
54388;SDS011;40975;50.390;8.640;2022-11-20T06:37:15;19.30;;;9.40;;
54388;SDS011;40975;50.390;8.640;2022-11-20T06:39:40;24.45;;;10.57;;
54388;SDS011;40975;50.390;8.640;2022-11-20T06:42:05;20.83;;;10.32;;
54388;SDS011;40975;50.390;8.640;2022-11-20T06:44:30;21.02;;;10.27;;
54388;SDS011;40975;50.390;8.640;2022-11-20T06:46:56;22.25;;;10.60;;
54388;SDS011;40975;50.390;8.640;2022-11-20T06:49:21;20.00;;;10.32;;
54388;SDS011;40975;50.390;8.640;2022-11-20T06:51:46;19.85;;;8.77;;
54388;SDS011;40975;50.390;8.640;2022-11-20T06:54:12;21.67;;;9.07;;
54388;SDS011;40975;50.390;8.640;2022-11-20T06:56:37;21.25;;;9.38;;
54388;SDS011;40975;50.390;8.640;2022-11-20T06:59:05;20.25;;;9.38;;
54388;SDS011;40975;50.390;8.640;2022-11-20T07:01:31;19.42;;;9.18;;
54388;SDS011;40975;50.390;8.640;2022-11-20T07:03:57;21.52;;;9.75;;
54388;SDS011;40975;50.390;8.640;2022-11-20T07:06:22;24.13;;;10.57;;
54388;SDS011;40975;50.390;8.640;2022-11-20T07:08:47;19.85;;;8.73;;
54388;SDS011;40975;50.390;8.640;2022-11-20T07:11:15;20.88;;;9.93;;
54388;SDS011;40975;50.390;8.640;2022-11-20T07:13:40;20.65;;;9.48;;
54388;SDS011;40975;50.390;8.640;2022-11-20T07:16:07;18.70;;;10.23;;
54388;SDS011;40975;50.390;8.640;2022-11-20T07:18:33;18.45;;;9.38;;
54388;SDS011;40975;50.390;8.640;2022-11-20T07:21:02;19.92;;;9.40;;
54388;SDS011;40975;50.390;8.640;2022-11-20T07:23:32;20.35;;;9.57;;
54388;SDS011;40975;50.390;8.640;2022-11-20T07:25:57;20.73;;;9.10;;
54388;SDS011;40975;50.390;8.640;2022-11-20T07:28:23;21.25;;;8.82;;
54388;SDS011;40975;50.390;8.640;2022-11-20T07:30:49;17.95;;;7.78;;
54388;SDS011;40975;50.390;8.640;2022-11-20T07:33:18;18.33;;;8.52;;
54388;SDS011;40975;50.390;8.640;2022-11-20T07:35:43;21.05;;;10.15;;
54388;SDS011;40975;50.390;8.640;2022-11-20T07:38:09;17.33;;;9.52;;
54388;SDS011;40975;50.390;8.640;2022-11-20T07:40:34;19.65;;;9.10;;
54388;SDS011;40975;50.390;8.640;2022-11-20T07:42:59;21.58;;;8.73;;
54388;SDS011;40975;50.390;8.640;2022-11-20T07:45:24;18.58;;;9.38;;
54388;SDS011;40975;50.390;8.640;2022-11-20T07:47:50;20.67;;;9.57;;
54388;SDS011;40975;50.390;8.640;2022-11-20T07:50:16;24.65;;;10.13;;
54388;SDS011;40975;50.390;8.640;2022-11-20T07:52:42;20.35;;;8.82;;
54388;SDS011;40975;50.390;8.640;2022-11-20T07:55:08;19.60;;;8.65;;
54388;SDS011;40975;50.390;8.640;2022-11-20T07:57:34;21.52;;;10.18;;
54388;SDS011;40975;50.390;8.640;2022-11-20T08:00:00;19.13;;;9.40;;
54388;SDS011;40975;50.390;8.640;2022-11-20T08:02:25;19.27;;;8.57;;
54388;SDS011;40975;50.390;8.640;2022-11-20T08:04:50;20.08;;;9.18;;
54388;SDS011;40975;50.390;8.640;2022-11-20T08:07:16;18.83;;;8.45;;
54388;SDS011;40975;50.390;8.640;2022-11-20T08:09:41;21.65;;;9.23;;
54388;SDS011;40975;50.390;8.640;2022-11-20T08:12:06;19.05;;;9.40;;
54388;SDS011;40975;50.390;8.640;2022-11-20T08:14:51;19.50;;;9.45;;
54388;SDS011;40975;50.390;8.640;2022-11-20T08:17:16;23.83;;;10.50;;
54388;SDS011;40975;50.390;8.640;2022-11-20T08:19:41;18.25;;;9.63;;
54388;SDS011;40975;50.390;8.640;2022-11-20T08:22:06;22.05;;;10.27;;
54388;SDS011;40975;50.390;8.640;2022-11-20T08:24:32;20.83;;;10.27;;
54388;SDS011;40975;50.390;8.640;2022-11-20T08:26:57;23.02;;;10.52;;
54388;SDS011;40975;50.390;8.640;2022-11-20T08:29:24;23.63;;;10.38;;
54388;SDS011;40975;50.390;8.640;2022-11-20T08:31:49;26.13;;;11.70;;
54388;SDS011;40975;50.390;8.640;2022-11-20T08:34:14;21.40;;;10.63;;
54388;SDS011;40975;50.390;8.640;2022-11-20T08:36:40;26.52;;;11.68;;
54388;SDS011;40975;50.390;8.640;2022-11-20T08:39:05;22.75;;;10.98;;
54388;SDS011;40975;50.390;8.640;2022-11-20T08:41:30;24.20;;;11.85;;
54388;SDS011;40975;50.390;8.640;2022-11-20T08:44:04;22.35;;;10.68;;
54388;SDS011;40975;50.390;8.640;2022-11-20T08:46:35;21.15;;;10.05;;
54388;SDS011;40975;50.390;8.640;2022-11-20T08:49:06;21.97;;;11.33;;
54388;SDS011;40975;50.390;8.640;2022-11-20T08:51:33;24.27;;;11.27;;
54388;SDS011;40975;50.390;8.640;2022-11-20T08:53:59;22.58;;;10.82;;
54388;SDS011;40975;50.390;8.640;2022-11-20T08:56:24;21.40;;;10.23;;
54388;SDS011;40975;50.390;8.640;2022-11-20T08:58:50;25.73;;;10.50;;
54388;SDS011;40975;50.390;8.640;2022-11-20T09:01:17;26.52;;;10.60;;
54388;SDS011;40975;50.390;8.640;2022-11-20T09:03:43;24.55;;;10.70;;
54388;SDS011;40975;50.390;8.640;2022-11-20T09:06:09;24.05;;;10.50;;
54388;SDS011;40975;50.390;8.640;2022-11-20T09:08:34;21.75;;;10.60;;
54388;SDS011;40975;50.390;8.640;2022-11-20T09:11:01;19.70;;;10.75;;
54388;SDS011;40975;50.390;8.640;2022-11-20T09:13:28;24.85;;;10.05;;
54388;SDS011;40975;50.390;8.640;2022-11-20T09:15:57;22.98;;;11.45;;
54388;SDS011;40975;50.390;8.640;2022-11-20T09:18:27;23.65;;;10.57;;
54388;SDS011;40975;50.390;8.640;2022-11-20T09:21:00;24.77;;;11.70;;
54388;SDS011;40975;50.390;8.640;2022-11-20T09:23:26;21.38;;;9.75;;
54388;SDS011;40975;50.390;8.640;2022-11-20T09:25:55;22.25;;;10.60;;
54388;SDS011;40975;50.390;8.640;2022-11-20T09:28:24;20.27;;;9.98;;
54388;SDS011;40975;50.390;8.640;2022-11-20T09:30:50;20.23;;;10.27;;
54388;SDS011;40975;50.390;8.640;2022-11-20T09:33:15;24.75;;;11.07;;
54388;SDS011;40975;50.390;8.640;2022-11-20T09:35:40;23.65;;;10.27;;
54388;SDS011;40975;50.390;8.640;2022-11-20T09:38:06;20.38;;;9.80;;
54388;SDS011;40975;50.390;8.640;2022-11-20T09:40:31;22.45;;;10.60;;
54388;SDS011;40975;50.390;8.640;2022-11-20T09:43:07;24.48;;;10.48;;
54388;SDS011;40975;50.390;8.640;2022-11-20T09:48:25;21.58;;;10.68;;
54388;SDS011;40975;50.390;8.640;2022-11-20T09:51:15;18.73;;;10.18;;
54388;SDS011;40975;50.390;8.640;2022-11-20T09:56:15;23.42;;;11.02;;
54388;SDS011;40975;50.390;8.640;2022-11-20T09:58:43;21.75;;;10.25;;
54388;SDS011;40975;50.390;8.640;2022-11-20T10:01:14;25.70;;;12.65;;
54388;SDS011;40975;50.390;8.640;2022-11-20T10:03:41;25.65;;;12.38;;
54388;SDS011;40975;50.390;8.640;2022-11-20T10:06:30;23.50;;;12.02;;
54388;SDS011;40975;50.390;8.640;2022-11-20T10:14:39;24.98;;;12.02;;
54388;SDS011;40975;50.390;8.640;2022-11-20T10:20:16;21.95;;;10.93;;
54388;SDS011;40975;50.390;8.640;2022-11-20T10:23:03;25.52;;;11.35;;
54388;SDS011;40975;50.390;8.640;2022-11-20T10:25:50;23.48;;;11.63;;
54388;SDS011;40975;50.390;8.640;2022-11-20T10:28:45;23.40;;;11.85;;
54388;SDS011;40975;50.390;8.640;2022-11-20T10:31:24;23.60;;;11.32;;
54388;SDS011;40975;50.390;8.640;2022-11-20T10:34:17;23.08;;;10.77;;
54388;SDS011;40975;50.390;8.640;2022-11-20T10:36:46;23.85;;;11.20;;
54388;SDS011;40975;50.390;8.640;2022-11-20T10:39:18;26.85;;;11.30;;
54388;SDS011;40975;50.390;8.640;2022-11-20T10:41:51;26.15;;;12.68;;
54388;SDS011;40975;50.390;8.640;2022-11-20T10:44:25;25.27;;;11.65;;
54388;SDS011;40975;50.390;8.640;2022-11-20T10:47:14;28.90;;;12.45;;
54388;SDS011;40975;50.390;8.640;2022-11-20T10:49:42;24.90;;;11.77;;
54388;SDS011;40975;50.390;8.640;2022-11-20T11:00:24;21.17;;;11.40;;
54388;SDS011;40975;50.390;8.640;2022-11-20T11:02:53;21.70;;;10.52;;
54388;SDS011;40975;50.390;8.640;2022-11-20T11:07:45;21.38;;;10.70;;
54388;SDS011;40975;50.390;8.640;2022-11-20T11:10:15;23.10;;;9.73;;
54388;SDS011;40975;50.390;8.640;2022-11-20T11:12:44;20.60;;;10.25;;
54388;SDS011;40975;50.390;8.640;2022-11-20T11:15:24;19.83;;;9.35;;
54388;SDS011;40975;50.390;8.640;2022-11-20T11:17:54;19.35;;;9.70;;
54388;SDS011;40975;50.390;8.640;2022-11-20T11:20:24;22.88;;;9.98;;
54388;SDS011;40975;50.390;8.640;2022-11-20T11:25:20;24.23;;;10.57;;
54388;SDS011;40975;50.390;8.640;2022-11-20T11:27:57;24.00;;;11.18;;
54388;SDS011;40975;50.390;8.640;2022-11-20T11:30:24;24.58;;;10.60;;
54388;SDS011;40975;50.390;8.640;2022-11-20T11:33:02;19.63;;;9.63;;
54388;SDS011;40975;50.390;8.640;2022-11-20T11:35:29;20.23;;;9.60;;
54388;SDS011;40975;50.390;8.640;2022-11-20T11:38:01;23.60;;;10.35;;
54388;SDS011;40975;50.390;8.640;2022-11-20T11:40:30;22.52;;;10.52;;
54388;SDS011;40975;50.390;8.640;2022-11-20T11:43:02;22.52;;;10.77;;
54388;SDS011;40975;50.390;8.640;2022-11-20T11:45:54;28.73;;;11.05;;
54388;SDS011;40975;50.390;8.640;2022-11-20T11:48:20;21.67;;;9.85;;
54388;SDS011;40975;50.390;8.640;2022-11-20T11:50:49;22.42;;;10.65;;
54388;SDS011;40975;50.390;8.640;2022-11-20T11:53:17;23.47;;;9.97;;
54388;SDS011;40975;50.390;8.640;2022-11-20T11:55:46;22.25;;;10.68;;
54388;SDS011;40975;50.390;8.640;2022-11-20T12:01:24;21.40;;;9.93;;
54388;SDS011;40975;50.390;8.640;2022-11-20T12:06:42;21.02;;;11.32;;
54388;SDS011;40975;50.390;8.640;2022-11-20T12:09:10;23.88;;;10.02;;
54388;SDS011;40975;50.390;8.640;2022-11-20T12:14:09;20.92;;;10.38;;
54388;SDS011;40975;50.390;8.640;2022-11-20T12:16:40;26.45;;;11.55;;
54388;SDS011;40975;50.390;8.640;2022-11-20T12:19:10;28.00;;;11.23;;
54388;SDS011;40975;50.390;8.640;2022-11-20T12:21:45;25.00;;;11.02;;
54388;SDS011;40975;50.390;8.640;2022-11-20T12:24:30;24.30;;;10.55;;
54388;SDS011;40975;50.390;8.640;2022-11-20T12:27:20;22.55;;;10.48;;
54388;SDS011;40975;50.390;8.640;2022-11-20T12:30:11;24.20;;;10.75;;
54388;SDS011;40975;50.390;8.640;2022-11-20T12:38:35;26.30;;;10.88;;
54388;SDS011;40975;50.390;8.640;2022-11-20T12:44:43;26.80;;;12.32;;
54388;SDS011;40975;50.390;8.640;2022-11-20T12:52:51;26.90;;;10.35;;
54388;SDS011;40975;50.390;8.640;2022-11-20T12:58:49;31.58;;;11.40;;
54388;SDS011;40975;50.390;8.640;2022-11-20T13:01:00;28.00;;;11.53;;
54388;SDS011;40975;50.390;8.640;2022-11-20T13:04:06;26.38;;;11.10;;
54388;SDS011;40975;50.390;8.640;2022-11-20T13:06:36;25.70;;;12.35;;
54388;SDS011;40975;50.390;8.640;2022-11-20T13:09:02;21.58;;;10.48;;
54388;SDS011;40975;50.390;8.640;2022-11-20T13:11:41;27.90;;;11.82;;
54388;SDS011;40975;50.390;8.640;2022-11-20T13:14:33;28.75;;;12.25;;
54388;SDS011;40975;50.390;8.640;2022-11-20T13:17:16;30.38;;;12.00;;
54388;SDS011;40975;50.390;8.640;2022-11-20T13:19:53;29.50;;;12.18;;
54388;SDS011;40975;50.390;8.640;2022-11-20T13:22:24;34.50;;;13.57;;
54388;SDS011;40975;50.390;8.640;2022-11-20T13:24:54;28.13;;;11.88;;
54388;SDS011;40975;50.390;8.640;2022-11-20T13:27:22;32.53;;;12.68;;
54388;SDS011;40975;50.390;8.640;2022-11-20T13:33:21;25.75;;;10.98;;
54388;SDS011;40975;50.390;8.640;2022-11-20T13:35:54;28.17;;;11.57;;
54388;SDS011;40975;50.390;8.640;2022-11-20T13:38:21;28.70;;;11.25;;
54388;SDS011;40975;50.390;8.640;2022-11-20T13:40:56;27.50;;;11.25;;
54388;SDS011;40975;50.390;8.640;2022-11-20T13:43:27;23.80;;;10.80;;
54388;SDS011;40975;50.390;8.640;2022-11-20T13:48:27;23.45;;;11.82;;
54388;SDS011;40975;50.390;8.640;2022-11-20T13:54:00;34.15;;;13.35;;
54388;SDS011;40975;50.390;8.640;2022-11-20T13:59:39;24.85;;;11.57;;
54388;SDS011;40975;50.390;8.640;2022-11-20T14:02:16;28.02;;;11.60;;
54388;SDS011;40975;50.390;8.640;2022-11-20T14:04:44;26.02;;;11.52;;
54388;SDS011;40975;50.390;8.640;2022-11-20T14:07:12;26.23;;;12.15;;
54388;SDS011;40975;50.390;8.640;2022-11-20T14:09:37;30.05;;;11.80;;
54388;SDS011;40975;50.390;8.640;2022-11-20T14:12:03;27.50;;;12.38;;
54388;SDS011;40975;50.390;8.640;2022-11-20T14:14:46;24.88;;;11.40;;
54388;SDS011;40975;50.390;8.640;2022-11-20T14:17:18;28.98;;;12.70;;
54388;SDS011;40975;50.390;8.640;2022-11-20T14:19:43;31.88;;;13.07;;
54388;SDS011;40975;50.390;8.640;2022-11-20T14:22:18;26.75;;;12.25;;
54388;SDS011;40975;50.390;8.640;2022-11-20T14:24:49;33.75;;;12.98;;
54388;SDS011;40975;50.390;8.640;2022-11-20T14:27:26;32.40;;;13.40;;
54388;SDS011;40975;50.390;8.640;2022-11-20T14:29:52;27.65;;;11.52;;
54388;SDS011;40975;50.390;8.640;2022-11-20T14:32:17;29.02;;;11.85;;
54388;SDS011;40975;50.390;8.640;2022-11-20T14:34:46;29.70;;;12.80;;
54388;SDS011;40975;50.390;8.640;2022-11-20T14:37:17;29.50;;;13.10;;
54388;SDS011;40975;50.390;8.640;2022-11-20T14:39:50;30.20;;;11.98;;
54388;SDS011;40975;50.390;8.640;2022-11-20T14:42:23;29.38;;;10.65;;
54388;SDS011;40975;50.390;8.640;2022-11-20T14:44:51;25.87;;;11.97;;
54388;SDS011;40975;50.390;8.640;2022-11-20T14:47:21;28.90;;;12.82;;
54388;SDS011;40975;50.390;8.640;2022-11-20T14:49:48;29.45;;;12.32;;
54388;SDS011;40975;50.390;8.640;2022-11-20T14:52:16;30.60;;;11.85;;
54388;SDS011;40975;50.390;8.640;2022-11-20T14:54:50;31.70;;;13.00;;
54388;SDS011;40975;50.390;8.640;2022-11-20T14:57:30;32.97;;;12.13;;
54388;SDS011;40975;50.390;8.640;2022-11-20T15:00:07;37.17;;;14.90;;
54388;SDS011;40975;50.390;8.640;2022-11-20T15:02:38;34.53;;;13.35;;
54388;SDS011;40975;50.390;8.640;2022-11-20T15:05:08;33.10;;;14.15;;
54388;SDS011;40975;50.390;8.640;2022-11-20T15:07:38;30.15;;;12.98;;
54388;SDS011;40975;50.390;8.640;2022-11-20T15:10:11;26.58;;;11.73;;
54388;SDS011;40975;50.390;8.640;2022-11-20T15:15:27;25.35;;;10.68;;
54388;SDS011;40975;50.390;8.640;2022-11-20T15:17:56;27.45;;;9.73;;
54388;SDS011;40975;50.390;8.640;2022-11-20T15:20:23;23.15;;;9.43;;
54388;SDS011;40975;50.390;8.640;2022-11-20T15:22:51;23.80;;;10.15;;
54388;SDS011;40975;50.390;8.640;2022-11-20T15:25:17;24.02;;;10.10;;
54388;SDS011;40975;50.390;8.640;2022-11-20T15:27:43;22.45;;;9.27;;
54388;SDS011;40975;50.390;8.640;2022-11-20T15:30:14;28.95;;;10.77;;
54388;SDS011;40975;50.390;8.640;2022-11-20T15:32:44;32.60;;;12.93;;
54388;SDS011;40975;50.390;8.640;2022-11-20T15:35:10;39.45;;;19.00;;
54388;SDS011;40975;50.390;8.640;2022-11-20T15:37:36;33.20;;;14.23;;
54388;SDS011;40975;50.390;8.640;2022-11-20T15:40:02;32.17;;;13.85;;
54388;SDS011;40975;50.390;8.640;2022-11-20T15:42:28;29.85;;;11.32;;
54388;SDS011;40975;50.390;8.640;2022-11-20T15:44:53;33.60;;;13.50;;
54388;SDS011;40975;50.390;8.640;2022-11-20T15:47:19;32.40;;;12.52;;
54388;SDS011;40975;50.390;8.640;2022-11-20T15:49:50;30.33;;;11.68;;
54388;SDS011;40975;50.390;8.640;2022-11-20T15:52:16;35.33;;;13.82;;
54388;SDS011;40975;50.390;8.640;2022-11-20T15:54:41;37.75;;;13.40;;
54388;SDS011;40975;50.390;8.640;2022-11-20T15:57:06;34.78;;;13.18;;